createdAt,value
2019-02-18T00:02:10.737Z,-0.10
2019-02-18T00:04:39.145Z,0.00
2019-02-18T00:07:14.014Z,-0.10
2019-02-18T00:09:37.758Z,0.00
2019-02-18T00:12:06.224Z,0.00
2019-02-18T00:14:34.699Z,0.00
2019-02-18T00:17:03.094Z,0.00
2019-02-18T00:19:31.485Z,0.00
2019-02-18T00:21:59.916Z,0.00
2019-02-18T00:24:28.320Z,0.00
2019-02-18T00:26:56.716Z,0.00
2019-02-18T00:29:25.131Z,-0.10
2019-02-18T00:31:53.562Z,0.00
2019-02-18T00:34:21.988Z,-0.10
2019-02-18T00:36:50.388Z,0.00
2019-02-18T00:39:18.802Z,0.00
2019-02-18T00:41:49.198Z,0.00
2019-02-18T00:44:17.276Z,0.00
2019-02-18T00:46:45.796Z,0.10
2019-02-18T00:49:14.194Z,0.10
2019-02-18T00:51:42.602Z,0.10
2019-02-18T00:54:11.004Z,0.10
2019-02-18T00:56:39.464Z,0.10
2019-02-18T00:59:07.890Z,0.10
2019-02-18T01:01:36.291Z,0.10
2019-02-18T01:04:04.843Z,0.20
2019-02-18T01:06:33.273Z,0.20
2019-02-18T01:09:01.681Z,0.20
2019-02-18T01:11:30.197Z,0.10
2019-02-18T01:13:58.597Z,0.10
2019-02-18T01:16:27.001Z,0.20
2019-02-18T01:18:55.463Z,0.10
2019-02-18T01:21:23.863Z,0.10
2019-02-18T01:23:52.316Z,0.10
2019-02-18T01:26:20.709Z,0.00
2019-02-18T01:28:49.179Z,0.00
2019-02-18T01:31:17.641Z,-0.10
2019-02-18T01:33:46.052Z,-0.10
2019-02-18T01:36:14.501Z,-0.10
2019-02-18T01:38:42.909Z,-0.10
2019-02-18T01:41:11.317Z,-0.10
2019-02-18T01:43:39.730Z,-0.10
2019-02-18T01:46:08.144Z,-0.10
2019-02-18T01:48:36.653Z,-0.20
2019-02-18T01:51:05.131Z,-0.20
2019-02-18T01:53:33.601Z,-0.20
2019-02-18T01:56:01.947Z,-0.30
2019-02-18T01:58:30.412Z,-0.20
2019-02-18T02:00:58.848Z,-0.20
2019-02-18T02:03:27.258Z,-0.20
2019-02-18T02:05:55.658Z,-0.20
2019-02-18T02:08:24.108Z,-0.20
2019-02-18T02:10:52.515Z,-0.20
2019-02-18T02:13:28.481Z,-0.20
2019-02-18T02:15:57.528Z,-0.20
2019-02-18T02:18:25.941Z,-0.10
2019-02-18T02:20:54.358Z,-0.10
2019-02-18T02:23:22.829Z,-0.10
2019-02-18T02:25:51.266Z,-0.10
2019-02-18T02:28:19.665Z,0.00
2019-02-18T02:30:48.181Z,0.00
2019-02-18T02:33:16.580Z,0.00
2019-02-18T02:35:45.050Z,0.00
2019-02-18T02:38:13.481Z,0.00
2019-02-18T02:40:41.956Z,0.00
2019-02-18T02:43:11.293Z,0.00
2019-02-18T02:45:39.705Z,0.00
2019-02-18T02:48:08.106Z,0.00
2019-02-18T02:50:36.547Z,0.10
2019-02-18T02:53:04.941Z,0.10
2019-02-18T02:55:33.341Z,0.10
2019-02-18T02:58:01.736Z,0.10
2019-02-18T03:00:30.159Z,0.10
2019-02-18T03:02:58.581Z,0.10
2019-02-18T03:05:27.004Z,0.10
2019-02-18T03:07:55.486Z,0.10
2019-02-18T03:10:23.889Z,0.10
2019-02-18T03:12:52.293Z,0.10
2019-02-18T03:15:20.812Z,0.10
2019-02-18T03:17:49.241Z,0.10
2019-02-18T03:20:17.628Z,0.10
2019-02-18T03:22:46.039Z,0.10
2019-02-18T03:25:19.681Z,0.10
2019-02-18T03:27:50.858Z,0.10
2019-02-18T03:30:34.194Z,0.10
2019-02-18T03:33:03.109Z,0.00
2019-02-18T03:35:31.502Z,0.00
2019-02-18T03:37:59.909Z,0.00
2019-02-18T03:40:28.318Z,0.00
2019-02-18T03:42:56.733Z,0.00
2019-02-18T03:45:25.269Z,-0.10
2019-02-18T03:47:53.678Z,-0.10
2019-02-18T03:50:22.091Z,-0.20
2019-02-18T03:52:50.633Z,-0.20
2019-02-18T03:55:19.065Z,-0.30
2019-02-18T03:57:47.561Z,-0.30
2019-02-18T04:00:16.034Z,-0.40
2019-02-18T04:02:44.448Z,-0.40
2019-02-18T04:05:12.862Z,-0.50
2019-02-18T04:07:41.381Z,-0.50
2019-02-18T04:10:11.508Z,-0.60
2019-02-18T04:12:39.913Z,-0.70
2019-02-18T04:15:10.993Z,-0.70
2019-02-18T04:17:38.708Z,-0.70
2019-02-18T04:20:07.547Z,-0.80
2019-02-18T04:22:35.979Z,-0.90
2019-02-18T04:25:05.823Z,-0.90
2019-02-18T04:27:34.228Z,-1.00
2019-02-18T04:30:02.712Z,-0.90
2019-02-18T04:32:31.134Z,-1.00
2019-02-18T04:34:59.685Z,-1.00
2019-02-18T04:37:28.089Z,-1.00
2019-02-18T04:39:56.497Z,-1.10
2019-02-18T04:42:24.913Z,-1.10
2019-02-18T04:44:54.257Z,-1.10
2019-02-18T04:47:22.692Z,-1.20
2019-02-18T04:49:51.117Z,-1.20
2019-02-18T04:52:19.512Z,-1.20
2019-02-18T04:54:47.999Z,-1.30
2019-02-18T04:57:16.417Z,-1.30
2019-02-18T04:59:44.849Z,-1.30
2019-02-18T05:02:13.257Z,-1.30
2019-02-18T05:04:41.734Z,-1.40
2019-02-18T05:07:10.140Z,-1.40
2019-02-18T05:09:39.919Z,-1.40
2019-02-18T05:12:08.709Z,-1.40
2019-02-18T05:14:37.217Z,-1.50
2019-02-18T05:17:05.630Z,-1.60
2019-02-18T05:19:34.021Z,-1.60
2019-02-18T05:22:02.428Z,-1.60
2019-02-18T05:24:30.929Z,-1.70
2019-02-18T05:26:59.338Z,-1.60
2019-02-18T05:29:27.824Z,-1.70
2019-02-18T05:31:56.224Z,-1.70
2019-02-18T05:34:24.643Z,-1.70
2019-02-18T05:36:53.341Z,-1.70
2019-02-18T05:39:21.752Z,-1.70
2019-02-18T05:41:50.158Z,-1.80
2019-02-18T05:44:18.572Z,-1.70
2019-02-18T05:46:47.026Z,-1.70
2019-02-18T05:49:15.461Z,-1.70
2019-02-18T05:51:43.943Z,-1.70
2019-02-18T05:54:12.433Z,-1.70
2019-02-18T05:56:40.850Z,-1.70
2019-02-18T05:59:09.256Z,-1.70
2019-02-18T06:01:37.900Z,-1.70
2019-02-18T06:04:06.544Z,-1.70
2019-02-18T06:06:34.965Z,-1.70
2019-02-18T06:09:04.366Z,-1.70
2019-02-18T06:11:32.772Z,-1.70
2019-02-18T06:14:01.215Z,-1.60
2019-02-18T06:16:29.718Z,-1.60
2019-02-18T06:18:58.125Z,-1.50
2019-02-18T06:21:26.536Z,-1.60
2019-02-18T06:23:54.965Z,-1.60
2019-02-18T06:26:23.386Z,-1.60
2019-02-18T06:28:51.801Z,-1.50
2019-02-18T06:31:20.285Z,-1.60
2019-02-18T06:33:48.698Z,-1.50
2019-02-18T06:36:17.109Z,-1.60
2019-02-18T06:38:45.703Z,-1.50
2019-02-18T06:41:14.106Z,-1.60
2019-02-18T06:43:42.513Z,-1.70
2019-02-18T06:46:15.673Z,-1.80
2019-02-18T06:48:45.715Z,-1.80
2019-02-18T06:51:14.158Z,-1.80
2019-02-18T06:53:42.619Z,-1.80
2019-02-18T06:56:11.024Z,-1.80
2019-02-18T06:58:47.048Z,-1.80
2019-02-18T07:01:26.150Z,-1.70
2019-02-18T07:03:56.181Z,-1.70
2019-02-18T07:06:41.545Z,-1.70
2019-02-18T07:09:11.602Z,-1.60
2019-02-18T07:11:41.650Z,-1.60
2019-02-18T07:14:10.153Z,-1.60
2019-02-18T07:16:38.579Z,-1.60
2019-02-18T07:19:06.961Z,-1.50
2019-02-18T07:21:35.372Z,-1.50
2019-02-18T07:24:03.800Z,-1.50
2019-02-18T07:26:32.233Z,-1.40
2019-02-18T07:29:00.662Z,-1.40
2019-02-18T07:31:29.036Z,-1.40
2019-02-18T07:33:57.546Z,-1.30
2019-02-18T07:36:25.942Z,-1.20
2019-02-18T07:38:54.372Z,-1.10
2019-02-18T07:41:22.776Z,-1.00
2019-02-18T07:43:51.186Z,-1.00
2019-02-18T07:46:19.593Z,-1.00
2019-02-18T07:48:48.004Z,-0.90
2019-02-18T07:51:16.435Z,-0.80
2019-02-18T07:53:44.856Z,-0.70
2019-02-18T07:56:13.264Z,-0.60
2019-02-18T07:58:41.685Z,-0.40
2019-02-18T08:01:10.144Z,0.20
2019-02-18T08:03:38.597Z,1.20
2019-02-18T08:06:06.976Z,1.80
2019-02-18T08:08:35.392Z,2.40
2019-02-18T08:11:03.779Z,2.60
2019-02-18T08:13:32.172Z,2.90
2019-02-18T08:16:00.613Z,3.10
2019-02-18T08:18:29.014Z,3.40
2019-02-18T08:20:57.548Z,3.60
2019-02-18T08:23:26.030Z,3.80
2019-02-18T08:25:54.428Z,4.20
2019-02-18T08:28:22.857Z,4.20
2019-02-18T08:30:51.331Z,3.80
2019-02-18T08:33:19.724Z,3.60
2019-02-18T08:35:48.138Z,2.90
2019-02-18T08:38:16.533Z,2.60
2019-02-18T08:40:45.037Z,2.40
2019-02-18T08:43:13.440Z,2.20
2019-02-18T08:45:41.941Z,2.00
2019-02-18T08:48:10.345Z,1.80
2019-02-18T08:50:38.784Z,1.40
2019-02-18T08:53:07.219Z,1.30
2019-02-18T08:55:35.621Z,1.10
2019-02-18T08:58:04.028Z,1.00
2019-02-18T09:00:32.424Z,1.10
2019-02-18T09:03:00.829Z,1.10
2019-02-18T09:05:29.412Z,1.10
2019-02-18T09:07:57.798Z,1.20
2019-02-18T09:10:33.133Z,1.20
2019-02-18T09:12:56.438Z,1.30
2019-02-18T09:15:24.837Z,1.40
2019-02-18T09:17:53.256Z,1.50
2019-02-18T09:20:21.794Z,1.90
2019-02-18T09:23:09.934Z,2.00
2019-02-18T09:25:39.972Z,2.40
2019-02-18T09:28:08.395Z,3.00
2019-02-18T09:30:38.440Z,3.90
2019-02-18T09:33:06.856Z,4.20
2019-02-18T09:35:35.261Z,5.00
2019-02-18T09:38:03.667Z,5.40
2019-02-18T09:40:32.096Z,5.90
2019-02-18T09:43:00.560Z,6.20
2019-02-18T09:45:28.967Z,6.50
2019-02-18T09:47:57.361Z,6.70
2019-02-18T09:50:25.765Z,7.60
2019-02-18T09:52:54.222Z,7.20
2019-02-18T09:55:22.609Z,7.40
2019-02-18T09:57:51.011Z,7.80
2019-02-18T10:00:19.413Z,8.80
2019-02-18T10:02:47.889Z,9.20
2019-02-18T10:05:16.394Z,9.10
2019-02-18T10:07:44.867Z,9.30
2019-02-18T10:10:13.364Z,8.80
2019-02-18T10:12:41.781Z,9.30
2019-02-18T10:15:11.144Z,9.70
2019-02-18T10:17:39.658Z,9.60
2019-02-18T10:20:10.734Z,10.00
2019-02-18T10:22:39.139Z,9.90
2019-02-18T10:25:10.308Z,9.90
2019-02-18T10:27:38.704Z,10.30
2019-02-18T10:30:08.884Z,10.90
2019-02-18T10:32:37.309Z,10.50
2019-02-18T10:35:10.757Z,10.80
2019-02-18T10:37:39.165Z,10.60
2019-02-18T10:40:09.420Z,10.80
2019-02-18T10:42:37.856Z,11.70
2019-02-18T10:45:11.613Z,11.80
2019-02-18T10:47:40.008Z,11.00
2019-02-18T10:50:12.905Z,11.10
2019-02-18T10:52:41.312Z,12.00
2019-02-18T10:55:10.899Z,12.00
2019-02-18T10:57:39.591Z,12.00
2019-02-18T11:00:15.472Z,12.00
2019-02-18T11:02:44.238Z,11.90
2019-02-18T11:05:12.639Z,11.10
2019-02-18T11:07:41.193Z,11.40
2019-02-18T11:10:16.632Z,11.50
2019-02-18T11:12:47.433Z,11.20
2019-02-18T11:15:15.331Z,11.00
2019-02-18T11:17:44.042Z,11.80
2019-02-18T11:20:13.082Z,12.40
2019-02-18T11:22:41.481Z,12.50
2019-02-18T11:25:14.707Z,13.20
2019-02-18T11:27:43.172Z,11.70
2019-02-18T11:30:17.540Z,11.90
2019-02-18T11:32:45.960Z,12.60
2019-02-18T11:35:14.354Z,11.80
2019-02-18T11:37:42.872Z,12.00
2019-02-18T11:40:18.283Z,12.50
2019-02-18T11:42:46.718Z,12.60
2019-02-18T11:45:16.276Z,11.90
2019-02-18T11:47:44.678Z,12.40
2019-02-18T11:50:14.482Z,12.50
2019-02-18T11:52:43.682Z,11.90
2019-02-18T11:55:13.020Z,11.40
2019-02-18T11:57:41.961Z,11.70
2019-02-18T12:00:13.164Z,12.00
2019-02-18T12:02:41.572Z,12.40
2019-02-18T12:05:10.963Z,11.90
2019-02-18T12:07:39.435Z,12.20
2019-02-18T12:10:11.161Z,12.50
2019-02-18T12:12:39.921Z,12.10
2019-02-18T12:15:13.448Z,11.30
2019-02-18T12:17:41.853Z,10.80
2019-02-18T12:20:12.709Z,10.60
2019-02-18T12:22:41.156Z,10.40
2019-02-18T12:25:09.947Z,10.00
2019-02-18T12:27:38.887Z,9.70
2019-02-18T12:30:15.346Z,8.80
2019-02-18T12:32:43.773Z,8.30
2019-02-18T12:35:12.312Z,7.80
2019-02-18T12:37:40.730Z,7.80
2019-02-18T12:40:10.877Z,7.60
2019-02-18T12:42:39.368Z,7.30
2019-02-18T12:45:12.875Z,7.30
2019-02-18T12:47:41.276Z,7.10
2019-02-18T12:50:10.815Z,6.90
2019-02-18T12:52:39.249Z,6.70
2019-02-18T12:55:10.001Z,6.50
2019-02-18T12:57:38.705Z,6.70
2019-02-18T13:00:14.013Z,6.60
2019-02-18T13:02:44.595Z,6.50
2019-02-18T13:05:13.000Z,6.40
2019-02-18T13:07:41.436Z,6.40
2019-02-18T13:10:10.564Z,6.40
2019-02-18T13:12:39.255Z,6.30
2019-02-18T13:15:13.296Z,6.20
2019-02-18T13:17:42.867Z,6.30
2019-02-18T13:20:11.497Z,6.30
2019-02-18T13:22:39.981Z,6.30
2019-02-18T13:25:09.496Z,6.20
2019-02-18T13:27:37.927Z,6.10
2019-02-18T13:30:12.586Z,6.10
2019-02-18T13:32:41.038Z,6.10
2019-02-18T13:35:09.445Z,6.00
2019-02-18T13:37:37.832Z,6.00
2019-02-18T13:40:06.698Z,5.90
2019-02-18T13:42:35.239Z,5.80
2019-02-18T13:45:05.110Z,5.80
2019-02-18T13:47:33.500Z,5.70
2019-02-18T13:50:01.964Z,5.60
2019-02-18T13:52:30.447Z,5.60
2019-02-18T13:54:58.865Z,5.60
2019-02-18T13:57:28.188Z,5.50
2019-02-18T14:00:18.725Z,5.40
2019-02-18T14:02:47.660Z,5.40
2019-02-18T14:05:16.329Z,5.30
2019-02-18T14:07:44.807Z,5.30
2019-02-18T14:10:13.294Z,5.30
2019-02-18T14:12:41.705Z,5.30
2019-02-18T14:15:12.233Z,5.30
2019-02-18T14:17:40.645Z,5.20
2019-02-18T14:20:11.740Z,5.20
2019-02-18T14:22:40.144Z,5.20
2019-02-18T14:25:09.857Z,5.10
2019-02-18T14:27:38.252Z,5.10
2019-02-18T14:30:09.917Z,5.10
2019-02-18T14:32:38.318Z,5.00
2019-02-18T14:35:07.660Z,5.00
2019-02-18T14:37:36.077Z,4.90
2019-02-18T14:40:05.131Z,4.90
2019-02-18T14:42:33.565Z,4.90
2019-02-18T14:45:01.968Z,4.90
2019-02-18T14:47:30.365Z,4.80
2019-02-18T14:49:58.779Z,4.80
2019-02-18T14:52:27.351Z,4.80
2019-02-18T14:54:55.900Z,4.70
2019-02-18T14:57:24.556Z,4.80
2019-02-18T14:59:52.957Z,4.70
2019-02-18T15:02:21.825Z,4.60
2019-02-18T15:04:50.224Z,4.60
2019-02-18T15:07:18.663Z,4.60
2019-02-18T15:09:47.132Z,4.60
2019-02-18T15:12:16.041Z,4.60
2019-02-18T15:14:44.450Z,4.50
2019-02-18T15:17:12.848Z,4.50
2019-02-18T15:19:41.312Z,4.50
2019-02-18T15:22:09.796Z,4.50
2019-02-18T15:24:38.177Z,4.40
2019-02-18T15:27:07.513Z,4.30
2019-02-18T15:29:35.909Z,4.30
2019-02-18T15:32:04.345Z,4.20
2019-02-18T15:34:32.834Z,4.20
2019-02-18T15:37:01.234Z,4.10
2019-02-18T15:39:29.633Z,4.10
2019-02-18T15:41:58.115Z,4.00
2019-02-18T15:44:26.851Z,4.00
2019-02-18T15:46:55.352Z,3.90
2019-02-18T15:49:23.782Z,3.90
2019-02-18T15:51:52.214Z,3.90
2019-02-18T15:54:20.601Z,3.90
2019-02-18T15:56:49.032Z,3.90
2019-02-18T15:59:17.516Z,3.80
2019-02-18T16:01:45.993Z,3.80
2019-02-18T16:04:14.499Z,3.80
2019-02-18T16:06:42.969Z,3.70
2019-02-18T16:09:11.398Z,3.60
2019-02-18T16:11:39.799Z,3.60
2019-02-18T16:14:08.200Z,3.50
2019-02-18T16:16:36.936Z,3.50
2019-02-18T16:19:05.352Z,3.40
2019-02-18T16:21:33.790Z,3.30
2019-02-18T16:24:02.259Z,3.30
2019-02-18T16:26:30.809Z,3.30
2019-02-18T16:28:59.373Z,3.30
2019-02-18T16:31:30.434Z,3.30
2019-02-18T16:33:57.936Z,3.40
2019-02-18T16:36:26.342Z,3.30
2019-02-18T16:38:55.045Z,3.30
2019-02-18T16:41:23.456Z,3.30
2019-02-18T16:43:51.853Z,3.30
2019-02-18T16:46:20.680Z,3.30
2019-02-18T16:48:49.407Z,3.30
2019-02-18T16:51:17.808Z,3.30
2019-02-18T16:53:46.216Z,3.30
2019-02-18T16:56:14.689Z,3.30
2019-02-18T16:58:43.108Z,3.30
2019-02-18T17:01:11.620Z,3.40
2019-02-18T17:03:40.129Z,3.40
2019-02-18T17:06:08.545Z,3.40
2019-02-18T17:08:36.970Z,3.40
2019-02-18T17:11:05.394Z,3.40
2019-02-18T17:13:33.800Z,3.40
2019-02-18T17:16:02.241Z,3.40
2019-02-18T17:18:31.048Z,3.40
2019-02-18T17:20:59.529Z,3.40
2019-02-18T17:23:27.958Z,3.40
2019-02-18T17:25:56.352Z,3.40
2019-02-18T17:28:24.750Z,3.40
2019-02-18T17:30:53.161Z,3.40
2019-02-18T17:33:21.568Z,3.30
2019-02-18T17:35:50.400Z,3.30
2019-02-18T17:38:18.813Z,3.30
2019-02-18T17:40:47.208Z,3.30
2019-02-18T17:43:16.619Z,3.30
2019-02-18T17:45:45.119Z,3.30
2019-02-18T17:48:13.624Z,3.30
2019-02-18T17:50:42.049Z,3.30
2019-02-18T17:53:10.453Z,3.30
2019-02-18T17:55:38.857Z,3.30
2019-02-18T17:58:07.320Z,3.30
2019-02-18T18:00:37.389Z,3.30
2019-02-18T18:03:06.068Z,3.30
2019-02-18T18:05:34.502Z,3.30
2019-02-18T18:08:03.884Z,3.30
2019-02-18T18:10:32.381Z,3.30
2019-02-18T18:13:00.808Z,3.30
2019-02-18T18:15:29.243Z,3.30
2019-02-18T18:17:57.645Z,3.30
2019-02-18T18:20:26.057Z,3.30
2019-02-18T18:22:54.882Z,3.30
2019-02-18T18:25:23.317Z,3.30
2019-02-18T18:27:51.788Z,3.40
2019-02-18T18:30:20.346Z,3.40
2019-02-18T18:32:48.749Z,3.40
2019-02-18T18:35:17.174Z,3.40
2019-02-18T18:37:45.572Z,3.40
2019-02-18T18:40:20.480Z,3.40
2019-02-18T18:42:48.868Z,3.40
2019-02-18T18:45:17.979Z,3.40
2019-02-18T18:47:46.451Z,3.40
2019-02-18T18:50:19.858Z,3.40
2019-02-18T18:52:48.263Z,3.40
2019-02-18T18:55:16.689Z,3.40
2019-02-18T18:57:45.077Z,3.40
2019-02-18T19:00:21.217Z,3.40
2019-02-18T19:02:49.618Z,3.40
2019-02-18T19:05:18.449Z,3.40
2019-02-18T19:07:46.837Z,3.40
2019-02-18T19:10:18.004Z,3.40
2019-02-18T19:12:45.792Z,3.40
2019-02-18T19:15:20.292Z,3.40
2019-02-18T19:17:48.876Z,3.40
2019-02-18T19:20:17.384Z,3.40
2019-02-18T19:22:45.787Z,3.40
2019-02-18T19:25:14.298Z,3.40
2019-02-18T19:27:42.697Z,3.40
2019-02-18T19:30:23.406Z,3.40
2019-02-18T19:32:51.867Z,3.40
2019-02-18T19:35:20.274Z,3.40
2019-02-18T19:40:23.207Z,3.40
2019-02-18T19:42:51.648Z,3.40
2019-02-18T19:45:22.125Z,3.40
2019-02-18T19:47:50.533Z,3.40
2019-02-18T19:50:18.940Z,3.50
2019-02-18T19:52:47.354Z,3.50
2019-02-18T19:55:15.758Z,3.50
2019-02-18T19:57:44.328Z,3.50
2019-02-18T20:00:17.784Z,3.50
2019-02-18T20:02:46.318Z,3.50
2019-02-18T20:05:14.696Z,3.50
2019-02-18T20:07:44.233Z,3.50
2019-02-18T20:10:13.320Z,3.50
2019-02-18T20:12:41.855Z,3.50
2019-02-18T20:15:13.225Z,3.50
2019-02-18T20:17:41.669Z,3.50
2019-02-18T20:20:12.964Z,3.50
2019-02-18T20:22:41.352Z,3.50
2019-02-18T20:25:10.036Z,3.50
2019-02-18T20:27:38.539Z,3.50
2019-02-18T20:30:10.347Z,3.50
2019-02-18T20:32:38.822Z,3.50
2019-02-18T20:35:08.586Z,3.50
2019-02-18T20:37:37.037Z,3.50
2019-02-18T20:40:07.085Z,3.50
2019-02-18T20:42:35.483Z,3.50
2019-02-18T20:45:04.831Z,3.40
2019-02-18T20:47:33.232Z,3.40
2019-02-18T20:50:01.662Z,3.40
2019-02-18T20:52:30.080Z,3.40
2019-02-18T20:54:58.807Z,3.40
2019-02-18T20:57:27.209Z,3.30
2019-02-18T20:59:55.918Z,3.30
2019-02-18T21:02:24.371Z,3.30
2019-02-18T21:04:52.775Z,3.30
2019-02-18T21:07:21.176Z,3.30
2019-02-18T21:09:49.573Z,3.30
2019-02-18T21:12:19.937Z,3.30
2019-02-18T21:14:48.068Z,3.30
2019-02-18T21:17:16.537Z,3.30
2019-02-18T21:19:44.956Z,3.30
2019-02-18T21:22:13.364Z,3.30
2019-02-18T21:24:41.772Z,3.30
2019-02-18T21:27:10.227Z,3.40
2019-02-18T21:29:38.927Z,3.30
2019-02-18T21:32:07.323Z,3.30
2019-02-18T21:34:35.823Z,3.30
2019-02-18T21:37:04.228Z,3.30
2019-02-18T21:39:32.679Z,3.30
2019-02-18T21:42:01.080Z,3.30
2019-02-18T21:44:29.548Z,3.30
2019-02-18T21:46:58.028Z,3.30
2019-02-18T21:49:27.992Z,3.30
2019-02-18T21:51:56.496Z,3.40
2019-02-18T21:54:24.899Z,3.40
2019-02-18T21:56:53.377Z,3.40
2019-02-18T21:59:21.781Z,3.40
2019-02-18T22:01:50.484Z,3.40
2019-02-18T22:04:18.932Z,3.40
2019-02-18T22:06:47.408Z,3.40
2019-02-18T22:09:15.808Z,3.40
2019-02-18T22:11:44.209Z,3.40
2019-02-18T22:14:12.673Z,3.40
2019-02-18T22:16:41.118Z,3.40
2019-02-18T22:19:09.817Z,3.40
2019-02-18T22:21:38.267Z,3.40
2019-02-18T22:24:06.670Z,3.40
2019-02-18T22:26:35.069Z,3.40
2019-02-18T22:29:03.593Z,3.40
2019-02-18T22:31:31.998Z,3.40
2019-02-18T22:34:00.396Z,3.40
2019-02-18T22:36:28.800Z,3.40
2019-02-18T22:38:57.255Z,3.40
2019-02-18T22:41:25.761Z,3.40
2019-02-18T22:43:54.242Z,3.40
2019-02-18T22:46:22.705Z,3.40
2019-02-18T22:48:51.115Z,3.40
2019-02-18T22:51:19.513Z,3.30
2019-02-18T22:53:47.912Z,3.40
2019-02-18T22:56:16.439Z,3.40
2019-02-18T22:58:44.849Z,3.30
2019-02-18T23:01:13.320Z,3.30
2019-02-18T23:03:41.724Z,3.30
2019-02-18T23:06:10.126Z,3.30
2019-02-18T23:08:38.932Z,3.40
2019-02-18T23:11:07.340Z,3.40
2019-02-18T23:13:35.805Z,3.40
2019-02-18T23:16:04.209Z,3.40
2019-02-18T23:18:32.611Z,3.40
2019-02-18T23:21:01.008Z,3.40
2019-02-18T23:23:29.487Z,3.40
2019-02-18T23:25:58.304Z,3.50
2019-02-18T23:28:26.709Z,3.50
2019-02-18T23:30:55.119Z,3.50
2019-02-18T23:33:23.522Z,3.60
2019-02-18T23:35:51.920Z,3.60
2019-02-18T23:38:20.332Z,3.60
2019-02-18T23:40:48.732Z,3.70
2019-02-18T23:43:17.652Z,3.80
2019-02-18T23:45:46.047Z,3.80
2019-02-18T23:48:14.448Z,3.70
2019-02-18T23:50:42.862Z,3.60
2019-02-18T23:55:40.415Z,3.60
2019-02-18T23:58:08.819Z,3.70
